Time;durP1;ratioP1;P1;durP2;ratioP2;P2;SDS_P1;SDS_P2;PMS_P1;PMS_P2;Temp;Humidity;BMP_temperature;BMP_pressure;BME280_temperature;BME280_humidity;BME280_pressure;Samples;Min_cycle;Max_cycle;Signal;HPM_P1;HPM_P2
2022/10/25 00:00:38;;;;;;;10.75;1.85;;;15.20;99.90;;;;;;4950142;28;20030;-76
2022/10/25 00:03:05;;;;;;;14.45;2.10;;;15.30;99.90;;;;;;4949298;28;20062;-75
2022/10/25 00:05:31;;;;;;;7.70;1.70;;;15.30;99.90;;;;;;4946788;28;20023;-74
2022/10/25 00:07:57;;;;;;;7.55;1.20;;;15.30;99.90;;;;;;4948357;28;20035;-74
2022/10/25 00:10:22;;;;;;;9.43;1.48;;;15.30;99.90;;;;;;4951927;28;20205;-75
2022/10/25 00:12:48;;;;;;;6.55;1.60;;;15.40;99.90;;;;;;4959215;28;20404;-75
2022/10/25 00:15:15;;;;;;;6.65;1.38;;;15.30;99.90;;;;;;4956167;28;20040;-76
2022/10/25 00:17:42;;;;;;;8.10;1.75;;;15.40;99.90;;;;;;4958164;28;20034;-74
2022/10/25 00:20:09;;;;;;;12.63;1.60;;;15.30;99.90;;;;;;4952752;28;20027;-74
2022/10/25 00:22:34;;;;;;;9.80;1.92;;;15.40;99.90;;;;;;4959034;28;20033;-74
2022/10/25 00:25:00;;;;;;;10.88;1.70;;;15.40;99.90;;;;;;4950496;28;20495;-74
2022/10/25 00:27:28;;;;;;;8.05;1.30;;;15.40;99.90;;;;;;4950626;28;20539;-74
2022/10/25 00:29:54;;;;;;;14.50;2.05;;;15.40;99.90;;;;;;4950385;28;20035;-75
2022/10/25 00:32:19;;;;;;;8.38;1.85;;;15.40;99.90;;;;;;4951280;28;20027;-74
2022/10/25 00:34:45;;;;;;;10.27;1.40;;;15.40;99.90;;;;;;4958374;28;20027;-75
2022/10/25 00:37:11;;;;;;;3.22;1.67;;;15.40;99.90;;;;;;4952712;28;20023;-73
2022/10/25 00:39:36;;;;;;;8.20;1.52;;;15.40;99.90;;;;;;4961790;28;20028;-75
2022/10/25 00:42:02;;;;;;;6.70;1.58;;;15.30;99.90;;;;;;4955460;28;20110;-73
2022/10/25 00:44:37;;;;;;;8.43;1.92;;;15.40;99.90;;;;;;4956200;28;20023;-76
2022/10/25 00:47:13;;;;;;;9.30;1.83;;;15.40;99.90;;;;;;4952734;28;20032;-75
2022/10/25 00:49:40;;;;;;;8.80;1.88;;;15.40;99.90;;;;;;4951868;28;20027;-75
2022/10/25 00:52:07;;;;;;;6.22;1.52;;;15.40;99.90;;;;;;4945228;28;20060;-78
2022/10/25 00:54:41;;;;;;;8.57;1.90;;;15.40;99.90;;;;;;4948375;28;20141;-72
2022/10/25 00:57:16;;;;;;;11.20;2.13;;;15.60;99.90;;;;;;4952819;28;20039;-74
2022/10/25 00:59:44;;;;;;;6.72;1.55;;;15.50;99.90;;;;;;4947836;28;20053;-72
2022/10/25 01:02:10;;;;;;;11.75;1.67;;;15.60;99.90;;;;;;4968910;28;20529;-76
2022/10/25 01:04:36;;;;;;;10.07;1.63;;;15.60;99.90;;;;;;4958360;28;20114;-76
2022/10/25 01:07:02;;;;;;;4.70;1.58;;;15.60;99.90;;;;;;4958342;28;20034;-75
2022/10/25 01:09:31;;;;;;;7.93;1.88;;;15.70;99.90;;;;;;4951538;28;20037;-76
2022/10/25 01:11:57;;;;;;;11.30;1.30;;;15.80;99.90;;;;;;4952860;28;20086;-74
2022/10/25 01:14:23;;;;;;;7.53;1.55;;;15.80;99.90;;;;;;4953391;28;20040;-74
2022/10/25 01:17:06;;;;;;;7.95;1.30;;;15.70;99.90;;;;;;4949233;28;20446;-73
2022/10/25 01:19:53;;;;;;;7.72;1.45;;;15.80;99.90;;;;;;4951499;28;20020;-73
2022/10/25 01:22:57;;;;;;;8.88;1.40;;;15.80;99.90;;;;;;4948897;28;20023;-76
2022/10/25 01:25:23;;;;;;;10.75;1.25;;;15.80;99.90;;;;;;4943456;28;20052;-73
2022/10/25 01:28:17;;;;;;;9.35;1.40;;;15.80;99.90;;;;;;4954477;28;20043;-73
2022/10/25 01:30:48;;;;;;;5.55;1.50;;;15.80;99.90;;;;;;4956243;28;20031;-75
2022/10/25 01:33:26;;;;;;;5.63;1.67;;;15.80;99.90;;;;;;4964495;28;20379;-75
2022/10/25 01:36:04;;;;;;;9.57;1.50;;;15.90;99.90;;;;;;4958281;28;20440;-76
2022/10/25 01:38:59;;;;;;;14.52;2.42;;;15.90;99.90;;;;;;4955599;28;20042;-75
2022/10/25 01:41:46;;;;;;;7.60;1.50;;;15.90;99.90;;;;;;4944377;28;20627;-73
2022/10/25 01:44:35;;;;;;;9.35;1.50;;;15.90;99.90;;;;;;4945623;28;20140;-73
2022/10/25 01:47:12;;;;;;;10.52;1.52;;;15.90;99.90;;;;;;4941719;28;20045;-76
2022/10/25 01:49:43;;;;;;;11.15;1.50;;;15.90;99.90;;;;;;4950030;28;20035;-75
2022/10/25 01:52:11;;;;;;;12.07;2.03;;;15.90;99.90;;;;;;4951374;28;20114;-75
2022/10/25 01:54:41;;;;;;;9.82;2.03;;;15.90;99.90;;;;;;4959507;28;20031;-75
2022/10/25 01:57:43;;;;;;;8.23;1.67;;;15.90;99.90;;;;;;4956389;28;20018;-76
2022/10/25 02:00:18;;;;;;;12.48;1.80;;;15.90;99.90;;;;;;4950770;28;20027;-73
2022/10/25 02:02:49;;;;;;;10.48;1.85;;;15.80;99.90;;;;;;4957939;28;20620;-74
2022/10/25 02:05:15;;;;;;;10.55;1.52;;;15.70;99.90;;;;;;4957375;28;20028;-73
2022/10/25 02:08:21;;;;;;;7.60;1.73;;;15.80;99.90;;;;;;4959131;28;20373;-73
2022/10/25 02:11:10;;;;;;;13.73;1.77;;;15.70;99.90;;;;;;4947041;28;20027;-75
2022/10/25 02:13:48;;;;;;;14.23;1.88;;;15.80;99.90;;;;;;4955381;28;20051;-73
2022/10/25 02:16:19;;;;;;;8.77;1.40;;;15.80;99.90;;;;;;4945420;28;20040;-73
2022/10/25 02:18:48;;;;;;;13.32;1.50;;;15.70;99.90;;;;;;4964897;28;20026;-75
2022/10/25 02:21:16;;;;;;;7.70;1.33;;;15.70;99.90;;;;;;4958691;28;20031;-73
2022/10/25 02:23:46;;;;;;;8.90;1.73;;;15.70;99.90;;;;;;4959146;28;20015;-74
2022/10/25 02:26:14;;;;;;;9.63;1.55;;;15.70;99.90;;;;;;4960001;28;20031;-73
2022/10/25 02:28:43;;;;;;;9.55;1.48;;;15.60;99.90;;;;;;4955489;28;20023;-75
2022/10/25 02:31:14;;;;;;;11.88;1.83;;;15.70;99.90;;;;;;4950756;28;20042;-77
2022/10/25 02:33:42;;;;;;;13.48;1.95;;;15.70;99.90;;;;;;4955559;28;20580;-75
2022/10/25 02:36:22;;;;;;;8.10;1.27;;;15.70;99.90;;;;;;4956641;28;20027;-77
2022/10/25 02:38:50;;;;;;;13.65;3.47;;;15.80;99.90;;;;;;4956918;28;20110;-75
2022/10/25 02:44:37;;;;;;;9.95;1.58;;;15.80;99.90;;;;;;4954864;28;20090;-72
2022/10/25 02:47:03;;;;;;;6.22;1.50;;;15.80;99.90;;;;;;4952436;28;20035;-73
2022/10/25 02:49:28;;;;;;;7.50;1.67;;;15.80;99.90;;;;;;4951959;28;20055;-72
2022/10/25 02:51:54;;;;;;;10.73;2.17;;;15.70;99.90;;;;;;4957033;28;20041;-74
2022/10/25 02:54:19;;;;;;;6.63;1.50;;;15.70;99.90;;;;;;4975877;28;20044;-74
2022/10/25 02:56:45;;;;;;;7.53;1.33;;;15.70;99.90;;;;;;4957153;28;20023;-75
2022/10/25 02:59:14;;;;;;;8.68;1.80;;;15.70;99.90;;;;;;4959467;28;20023;-76
2022/10/25 03:01:39;;;;;;;13.57;1.80;;;15.80;99.90;;;;;;4958619;28;20544;-76
2022/10/25 03:04:05;;;;;;;11.27;1.77;;;15.80;99.90;;;;;;4952104;28;20098;-73
2022/10/25 03:06:30;;;;;;;9.50;1.60;;;15.80;99.90;;;;;;4953950;28;20035;-76
2022/10/25 03:09:01;;;;;;;9.57;1.80;;;15.80;99.90;;;;;;4952277;28;20059;-72
2022/10/25 03:11:26;;;;;;;13.13;1.77;;;15.80;99.90;;;;;;4947960;28;20031;-75
2022/10/25 03:13:52;;;;;;;10.15;1.88;;;15.80;99.90;;;;;;4954317;28;20027;-75
2022/10/25 03:16:17;;;;;;;7.55;1.55;;;15.80;99.90;;;;;;4952083;28;20024;-76
2022/10/25 03:18:43;;;;;;;6.35;1.80;;;15.80;99.90;;;;;;4972892;28;20031;-73
2022/10/25 03:21:09;;;;;;;9.20;2.15;;;15.80;99.90;;;;;;4956874;28;20064;-74
2022/10/25 03:23:34;;;;;;;9.15;1.90;;;15.90;99.90;;;;;;4955545;28;20038;-75
2022/10/25 03:26:00;;;;;;;15.25;2.17;;;15.90;99.90;;;;;;4956151;28;20036;-75
2022/10/25 03:28:27;;;;;;;16.80;2.13;;;16.00;99.90;;;;;;4956619;28;20033;-72
2022/10/25 03:30:53;;;;;;;15.43;2.28;;;15.90;99.90;;;;;;4935312;28;20023;-74
2022/10/25 03:33:19;;;;;;;5.85;1.42;;;16.00;99.90;;;;;;4949941;28;20073;-75
2022/10/25 03:35:48;;;;;;;9.70;2.00;;;16.00;99.90;;;;;;4952608;28;20059;-74
2022/10/25 03:38:13;;;;;;;7.60;1.83;;;16.00;99.90;;;;;;4954253;28;20059;-74
2022/10/25 03:40:40;;;;;;;6.38;2.15;;;15.90;99.90;;;;;;4961816;28;20527;-74
2022/10/25 03:43:05;;;;;;;7.85;1.75;;;15.90;99.90;;;;;;4954813;28;20130;-73
2022/10/25 03:45:31;;;;;;;8.55;2.03;;;16.00;99.90;;;;;;4952280;28;20110;-74
2022/10/25 03:47:57;;;;;;;7.55;1.70;;;15.90;99.90;;;;;;4956528;28;20102;-75
2022/10/25 03:50:22;;;;;;;14.30;2.03;;;16.00;99.90;;;;;;4952399;28;20114;-75
2022/10/25 03:52:50;;;;;;;9.73;1.65;;;16.00;99.90;;;;;;4952101;28;20106;-74
2022/10/25 03:55:16;;;;;;;9.93;1.77;;;15.90;99.90;;;;;;4949230;28;20042;-74
2022/10/25 03:57:41;;;;;;;7.65;2.25;;;16.00;99.90;;;;;;4951671;28;20368;-74
2022/10/25 04:00:10;;;;;;;14.48;2.80;;;15.80;99.90;;;;;;4946666;28;20336;-72
2022/10/25 04:02:35;;;;;;;5.95;1.90;;;15.80;99.90;;;;;;4948840;28;20020;-73
2022/10/25 04:05:04;;;;;;;10.52;2.55;;;15.80;99.90;;;;;;4955327;28;20557;-72
2022/10/25 04:07:31;;;;;;;10.38;2.35;;;15.80;99.90;;;;;;4954914;28;20464;-75
2022/10/25 04:09:57;;;;;;;9.30;2.25;;;15.80;99.90;;;;;;4960317;28;20038;-75
2022/10/25 04:12:23;;;;;;;10.52;2.17;;;15.80;99.90;;;;;;4959172;28;20031;-75
2022/10/25 04:14:48;;;;;;;11.57;2.42;;;15.80;99.90;;;;;;4957715;28;20023;-75
2022/10/25 04:17:14;;;;;;;10.10;2.38;;;15.80;99.90;;;;;;4947485;28;20441;-72
2022/10/25 04:19:39;;;;;;;4.32;1.88;;;15.80;99.90;;;;;;4956113;28;20031;-75
2022/10/25 04:22:05;;;;;;;7.07;2.42;;;15.90;99.90;;;;;;4950150;28;20086;-74
2022/10/25 04:24:31;;;;;;;9.23;2.95;;;15.80;99.90;;;;;;4951055;28;20085;-76
2022/10/25 04:26:59;;;;;;;8.45;2.13;;;15.90;99.90;;;;;;4958192;28;20031;-74
2022/10/25 04:29:24;;;;;;;9.43;2.13;;;15.90;99.90;;;;;;4956125;28;20089;-76
2022/10/25 04:31:54;;;;;;;9.48;2.05;;;15.80;99.90;;;;;;4951020;28;20027;-74
2022/10/25 04:34:20;;;;;;;7.05;1.70;;;15.70;99.90;;;;;;4951450;28;20027;-73
2022/10/25 04:36:48;;;;;;;7.10;2.20;;;15.70;99.90;;;;;;4952508;28;20038;-74
2022/10/25 04:39:14;;;;;;;7.43;1.70;;;15.80;99.90;;;;;;4966631;28;20035;-74
2022/10/25 04:41:39;;;;;;;8.80;2.05;;;15.70;99.90;;;;;;4953489;28;20021;-75
2022/10/25 04:44:05;;;;;;;3.97;1.63;;;15.80;99.90;;;;;;4955637;28;20027;-73
2022/10/25 04:46:30;;;;;;;8.27;1.70;;;15.70;99.90;;;;;;4950107;28;20050;-74
2022/10/25 04:48:56;;;;;;;9.07;1.88;;;15.70;99.90;;;;;;4948344;28;20135;-73
2022/10/25 04:51:26;;;;;;;7.82;1.65;;;15.70;99.90;;;;;;4955830;28;20089;-73
2022/10/25 04:53:53;;;;;;;7.47;2.28;;;15.70;99.90;;;;;;4954400;28;20038;-74
2022/10/25 04:56:19;;;;;;;9.80;1.50;;;15.60;99.90;;;;;;4953253;28;20024;-77
2022/10/25 04:58:44;;;;;;;9.95;1.90;;;15.70;99.90;;;;;;4955690;28;20396;-75
2022/10/25 05:01:14;;;;;;;8.88;1.80;;;15.70;99.90;;;;;;4958280;28;20049;-76
2022/10/25 05:03:42;;;;;;;10.57;1.75;;;15.70;99.90;;;;;;4953289;28;20051;-76
2022/10/25 05:06:19;;;;;;;8.98;1.60;;;15.70;99.90;;;;;;4952331;28;20449;-74
2022/10/25 05:08:49;;;;;;;10.40;2.15;;;15.70;99.90;;;;;;4956850;28;20114;-76
2022/10/25 05:11:19;;;;;;;9.10;1.80;;;15.70;99.90;;;;;;4956011;28;20314;-75
2022/10/25 05:13:45;;;;;;;11.38;1.88;;;15.70;99.90;;;;;;4944134;28;20035;-75
2022/10/25 05:16:21;;;;;;;10.32;1.75;;;15.70;99.90;;;;;;4953502;28;20459;-74
2022/10/25 05:18:47;;;;;;;8.07;1.83;;;15.70;99.90;;;;;;4953129;28;20027;-71
2022/10/25 05:21:14;;;;;;;14.45;1.80;;;15.60;99.90;;;;;;4948027;28;20039;-74
2022/10/25 05:23:45;;;;;;;8.05;2.00;;;15.60;99.90;;;;;;4940320;28;20100;-76
2022/10/25 05:26:10;;;;;;;10.80;1.70;;;15.60;99.90;;;;;;4949977;28;20023;-74
2022/10/25 05:28:37;;;;;;;13.07;2.95;;;15.60;99.90;;;;;;4951551;28;20110;-74
2022/10/25 05:31:12;;;;;;;9.98;1.77;;;15.60;99.90;;;;;;4952701;28;20043;-76
2022/10/25 05:33:38;;;;;;;8.40;1.67;;;15.60;99.90;;;;;;4958699;28;20043;-76
2022/10/25 05:36:06;;;;;;;11.52;1.92;;;15.60;99.90;;;;;;4960190;28;20121;-76
2022/10/25 05:38:32;;;;;;;10.50;1.85;;;15.60;99.90;;;;;;4959209;28;20482;-75
2022/10/25 05:40:59;;;;;;;12.02;1.67;;;15.60;99.90;;;;;;4963836;28;20038;-74
2022/10/25 05:43:25;;;;;;;7.68;1.85;;;15.50;99.90;;;;;;4956706;28;20150;-76
2022/10/25 05:45:51;;;;;;;11.10;2.15;;;15.50;99.90;;;;;;4946064;28;20059;-73
2022/10/25 05:48:20;;;;;;;17.48;1.88;;;15.50;99.90;;;;;;4956750;28;20519;-74
2022/10/25 05:50:46;;;;;;;4.65;1.50;;;15.50;99.90;;;;;;4957209;28;20053;-75
2022/10/25 05:53:12;;;;;;;12.65;2.13;;;15.50;99.90;;;;;;4960732;28;20031;-73
2022/10/25 05:55:42;;;;;;;4.95;1.65;;;15.50;99.90;;;;;;4953403;28;20094;-74
2022/10/25 05:58:10;;;;;;;14.18;1.80;;;15.40;99.90;;;;;;4954895;28;20034;-76
2022/10/25 06:00:36;;;;;;;5.22;1.75;;;15.40;99.90;;;;;;4954859;28;20106;-74
2022/10/25 06:03:04;;;;;;;12.15;2.20;;;15.30;99.90;;;;;;4955743;28;20110;-74
2022/10/25 06:05:31;;;;;;;5.38;2.08;;;15.30;99.90;;;;;;4958770;28;20023;-78
2022/10/25 06:07:57;;;;;;;9.20;2.25;;;15.20;99.90;;;;;;4957394;28;20024;-77
2022/10/25 06:10:22;;;;;;;8.65;2.63;;;15.20;99.90;;;;;;4958384;28;20039;-76
2022/10/25 06:12:50;;;;;;;6.57;1.92;;;15.00;99.90;;;;;;4952242;28;20035;-78
2022/10/25 06:15:16;;;;;;;10.70;2.67;;;15.10;99.90;;;;;;4954924;28;20042;-78
2022/10/25 06:17:42;;;;;;;12.45;2.50;;;15.10;99.90;;;;;;4957741;28;20027;-76
2022/10/25 06:20:08;;;;;;;12.48;2.42;;;15.00;99.90;;;;;;4954590;28;20024;-76
2022/10/25 06:22:33;;;;;;;13.30;2.90;;;15.00;99.90;;;;;;4955095;28;20106;-76
2022/10/25 06:24:59;;;;;;;6.65;2.10;;;15.00;99.90;;;;;;4958315;28;20449;-77
2022/10/25 06:27:26;;;;;;;8.70;2.72;;;15.10;99.90;;;;;;4958385;28;20035;-76
2022/10/25 06:29:52;;;;;;;6.78;2.75;;;15.10;99.90;;;;;;4958464;28;20035;-76
2022/10/25 06:32:20;;;;;;;7.28;2.58;;;15.20;99.90;;;;;;4959007;28;20093;-78
2022/10/25 06:34:50;;;;;;;6.63;2.13;;;15.20;99.90;;;;;;4952755;28;20122;-74
2022/10/25 06:37:16;;;;;;;12.27;2.67;;;15.20;99.90;;;;;;4954770;28;20064;-73
2022/10/25 06:39:41;;;;;;;10.40;3.60;;;15.30;99.90;;;;;;4955017;28;20143;-73
2022/10/25 06:42:07;;;;;;;12.15;2.42;;;15.40;99.90;;;;;;4954126;28;20039;-77
2022/10/25 06:44:33;;;;;;;7.55;2.00;;;15.40;99.90;;;;;;4955734;28;20031;-77
2022/10/25 06:47:01;;;;;;;9.95;2.47;;;15.40;99.90;;;;;;4961089;28;20036;-76
2022/10/25 06:49:27;;;;;;;11.75;2.03;;;15.40;99.90;;;;;;4956746;28;20091;-75
2022/10/25 06:51:53;;;;;;;11.45;2.05;;;15.40;99.90;;;;;;4950484;28;20035;-77
2022/10/25 06:54:25;;;;;;;5.50;1.73;;;15.40;99.90;;;;;;4948461;28;20032;-77
2022/10/25 06:56:51;;;;;;;4.80;2.10;;;15.40;99.90;;;;;;4973279;28;20027;-79
2022/10/25 06:59:19;;;;;;;9.82;2.95;;;15.40;99.90;;;;;;4956128;28;20046;-74
2022/10/25 07:01:48;;;;;;;9.82;3.28;;;15.50;99.90;;;;;;4957587;28;20097;-80
2022/10/25 07:04:14;;;;;;;9.57;2.08;;;15.50;99.90;;;;;;4966335;28;20070;-78
2022/10/25 07:06:40;;;;;;;10.25;1.88;;;15.50;99.90;;;;;;4953394;28;20073;-78
2022/10/25 07:09:08;;;;;;;15.38;2.35;;;15.60;99.90;;;;;;4961258;28;20159;-75
2022/10/25 07:11:34;;;;;;;4.63;1.65;;;15.30;99.90;;;;;;4955249;28;20433;-75
2022/10/25 07:14:01;;;;;;;10.68;1.92;;;15.50;99.90;;;;;;4952185;28;20035;-75
2022/10/25 07:16:30;;;;;;;6.47;1.88;;;15.50;99.90;;;;;;4958788;28;20360;-77
2022/10/25 07:19:03;;;;;;;8.25;2.65;;;15.50;99.90;;;;;;4960565;28;20038;-74
2022/10/25 07:21:30;;;;;;;13.52;1.83;;;15.50;99.90;;;;;;4954330;28;20334;-77
2022/10/25 07:23:58;;;;;;;13.55;2.25;;;15.50;99.90;;;;;;4956911;28;20051;-74
2022/10/25 07:26:33;;;;;;;5.55;1.90;;;15.30;99.90;;;;;;4950482;28;20027;-77
2022/10/25 07:29:01;;;;;;;9.43;2.33;;;15.40;99.90;;;;;;4947006;28;20028;-75
2022/10/25 07:31:31;;;;;;;17.50;2.92;;;15.40;99.90;;;;;;4963470;28;20026;-77
2022/10/25 07:34:01;;;;;;;12.50;2.22;;;15.40;99.90;;;;;;4955941;28;20484;-72
2022/10/25 07:36:29;;;;;;;11.68;3.15;;;15.40;99.90;;;;;;4951596;28;20118;-72
2022/10/25 07:38:57;;;;;;;9.32;2.35;;;15.40;99.90;;;;;;4953768;28;20035;-76
2022/10/25 07:41:24;;;;;;;10.30;3.10;;;15.50;99.90;;;;;;4955243;28;20061;-76
2022/10/25 07:43:50;;;;;;;10.65;2.97;;;15.50;99.90;;;;;;4960740;28;20106;-76
2022/10/25 07:46:15;;;;;;;7.50;2.22;;;15.50;99.90;;;;;;4950992;28;20167;-76
2022/10/25 07:48:41;;;;;;;8.30;2.92;;;15.60;99.90;;;;;;4955557;28;20427;-78
2022/10/25 07:51:12;;;;;;;13.30;3.17;;;15.60;99.90;;;;;;4953628;28;20492;-78
2022/10/25 07:53:38;;;;;;;11.35;3.13;;;15.60;99.90;;;;;;4950469;28;20042;-77
2022/10/25 07:56:05;;;;;;;8.63;2.88;;;15.60;99.90;;;;;;4961828;28;20361;-75
2022/10/25 07:58:33;;;;;;;6.78;2.97;;;15.70;99.90;;;;;;4955773;28;20023;-75
2022/10/25 08:01:04;;;;;;;14.55;4.00;;;15.60;99.90;;;;;;4954341;28;20098;-73
2022/10/25 08:03:37;;;;;;;11.35;4.07;;;15.60;99.90;;;;;;4956027;28;20098;-74
2022/10/25 08:06:05;;;;;;;10.45;4.22;;;15.70;99.90;;;;;;4960866;28;20027;-74
2022/10/25 08:08:35;;;;;;;10.75;4.32;;;15.60;99.90;;;;;;4960184;28;20031;-75
2022/10/25 08:11:03;;;;;;;14.32;4.30;;;15.70;99.90;;;;;;4953691;28;20031;-74
2022/10/25 08:13:31;;;;;;;10.40;4.05;;;15.60;99.90;;;;;;4952765;28;20166;-76
2022/10/25 08:15:59;;;;;;;9.80;3.85;;;15.70;99.90;;;;;;4954455;28;20054;-78
2022/10/25 08:18:27;;;;;;;10.98;3.47;;;15.80;99.90;;;;;;4957260;28;20122;-75
2022/10/25 08:20:57;;;;;;;22.73;7.68;;;15.90;99.90;;;;;;4954221;28;20038;-74
2022/10/25 08:23:24;;;;;;;14.48;4.55;;;15.90;99.90;;;;;;4951603;28;20046;-72
2022/10/25 08:25:50;;;;;;;21.92;7.13;;;15.90;99.90;;;;;;4954016;28;20019;-75
2022/10/25 08:28:16;;;;;;;8.35;3.90;;;16.10;99.90;;;;;;4956168;28;20130;-74
2022/10/25 08:30:44;;;;;;;12.45;3.10;;;16.20;99.90;;;;;;4972931;28;20036;-76
2022/10/25 08:33:11;;;;;;;12.93;4.15;;;16.20;99.90;;;;;;4959676;28;20122;-75
2022/10/25 08:35:37;;;;;;;9.10;3.83;;;16.20;99.90;;;;;;4961156;28;20085;-76
2022/10/25 08:38:04;;;;;;;12.43;4.60;;;16.10;99.90;;;;;;4964411;28;20612;-76
2022/10/25 08:40:47;;;;;;;9.52;4.00;;;16.00;99.90;;;;;;4954822;28;20082;-76
2022/10/25 08:43:31;;;;;;;10.63;4.40;;;16.10;99.90;;;;;;4974819;28;20023;-77
2022/10/25 08:46:01;;;;;;;10.43;3.90;;;16.10;99.90;;;;;;4960277;28;20061;-76
2022/10/25 08:48:32;;;;;;;16.00;4.15;;;16.00;99.90;;;;;;4958550;28;20046;-74
2022/10/25 08:51:10;;;;;;;9.48;3.75;;;16.00;99.90;;;;;;4961438;28;20030;-75
2022/10/25 08:53:41;;;;;;;8.82;3.97;;;15.90;99.90;;;;;;4959052;28;20114;-72
2022/10/25 08:56:13;;;;;;;10.32;4.13;;;15.90;99.90;;;;;;4962574;28;20034;-75
2022/10/25 08:58:51;;;;;;;6.22;3.63;;;16.00;99.90;;;;;;4960714;28;20039;-77
2022/10/25 09:01:27;;;;;;;11.65;3.72;;;16.20;99.90;;;;;;4966960;28;20027;-77
2022/10/25 09:04:00;;;;;;;11.48;3.80;;;16.40;99.90;;;;;;4956953;28;20109;-77
2022/10/25 09:06:45;;;;;;;19.02;3.90;;;16.50;99.90;;;;;;4949926;28;20031;-76
2022/10/25 09:09:32;;;;;;;14.07;3.40;;;16.60;99.90;;;;;;4952156;28;20081;-76
2022/10/25 09:12:10;;;;;;;13.73;3.78;;;16.50;99.90;;;;;;4955989;28;20761;-79
2022/10/25 09:14:39;;;;;;;8.90;3.55;;;16.70;99.90;;;;;;4955652;28;20031;-76
2022/10/25 09:17:16;;;;;;;28.95;11.65;;;16.80;99.90;;;;;;4960058;28;20035;-74
2022/10/25 09:20:07;;;;;;;13.23;4.03;;;16.90;99.90;;;;;;4958600;28;20027;-73
2022/10/25 09:22:42;;;;;;;11.15;3.50;;;16.70;99.90;;;;;;4963966;28;20110;-76
2022/10/25 09:25:35;;;;;;;6.35;3.33;;;16.90;99.90;;;;;;4960662;28;20453;-76
2022/10/25 09:28:07;;;;;;;13.55;3.28;;;16.80;99.90;;;;;;4954509;28;20082;-75
2022/10/25 09:30:45;;;;;;;10.85;2.90;;;17.00;99.90;;;;;;4955070;28;20039;-75
2022/10/25 09:33:18;;;;;;;7.55;2.85;;;17.10;99.90;;;;;;4950089;28;20020;-75
2022/10/25 09:35:52;;;;;;;8.00;3.05;;;17.40;99.90;;;;;;4953391;28;20045;-75
2022/10/25 09:38:51;;;;;;;8.63;3.05;;;17.40;99.90;;;;;;4956159;28;20454;-77
2022/10/25 09:41:24;;;;;;;9.10;2.97;;;17.50;99.90;;;;;;4960171;28;20233;-74
2022/10/25 09:43:59;;;;;;;10.20;3.20;;;17.30;99.90;;;;;;4961567;28;20094;-75
2022/10/25 09:46:40;;;;;;;10.88;2.95;;;17.20;99.90;;;;;;4947844;28;20035;-76
2022/10/25 09:49:27;;;;;;;9.23;3.40;;;17.10;99.90;;;;;;4961013;28;20042;-74
2022/10/25 09:52:04;;;;;;;13.57;3.00;;;17.10;99.90;;;;;;4961978;28;20031;-77
2022/10/25 09:54:52;;;;;;;15.25;3.33;;;17.10;99.90;;;;;;4955407;28;20107;-76
2022/10/25 09:57:20;;;;;;;12.65;3.30;;;17.00;99.90;;;;;;4950474;28;20091;-74
2022/10/25 09:59:49;;;;;;;12.00;2.67;;;16.90;99.90;;;;;;4957519;28;20023;-77
2022/10/25 10:02:23;;;;;;;9.80;2.80;;;17.00;99.90;;;;;;4953922;28;20043;-77
2022/10/25 10:04:48;;;;;;;9.23;2.78;;;17.00;99.90;;;;;;4958302;28;20068;-75
2022/10/25 10:07:25;;;;;;;13.30;2.90;;;17.00;99.90;;;;;;4962156;28;20058;-76
2022/10/25 10:09:55;;;;;;;6.35;2.85;;;17.00;99.90;;;;;;4960567;28;20028;-75
2022/10/25 10:12:39;;;;;;;10.13;3.28;;;17.00;99.90;;;;;;4963701;28;20035;-75
2022/10/25 10:15:14;;;;;;;11.65;3.13;;;17.20;99.90;;;;;;4956936;28;20031;-78
2022/10/25 10:17:40;;;;;;;9.13;2.78;;;17.10;99.90;;;;;;4968191;28;20138;-75
2022/10/25 10:20:07;;;;;;;10.90;2.60;;;17.10;99.90;;;;;;4954004;28;20119;-75
2022/10/25 10:22:44;;;;;;;12.55;2.85;;;17.10;99.90;;;;;;4951256;28;20023;-77
2022/10/25 10:25:32;;;;;;;7.78;2.58;;;17.20;99.90;;;;;;4949947;28;20114;-74
2022/10/25 10:27:58;;;;;;;9.93;2.63;;;17.10;99.90;;;;;;4950356;28;20034;-74
2022/10/25 10:30:29;;;;;;;8.65;2.65;;;17.20;99.90;;;;;;4966948;28;20366;-75
2022/10/25 10:32:59;;;;;;;11.45;2.63;;;17.10;99.90;;;;;;4965248;28;20031;-75
2022/10/25 10:35:34;;;;;;;14.70;3.95;;;17.10;99.90;;;;;;4955056;28;20078;-72
2022/10/25 10:38:22;;;;;;;14.95;4.40;;;17.00;99.90;;;;;;4953310;28;20020;-79
2022/10/25 10:41:12;;;;;;;10.45;2.83;;;17.20;99.90;;;;;;4954865;28;20101;-76
2022/10/25 10:43:43;;;;;;;9.05;3.17;;;17.20;99.90;;;;;;4954001;28;20035;-74
2022/10/25 10:46:16;;;;;;;9.43;2.90;;;17.40;99.90;;;;;;4960777;28;20031;-75
2022/10/25 10:48:44;;;;;;;8.35;2.53;;;17.70;99.90;;;;;;4958257;28;20042;-77
2022/10/25 10:51:18;;;;;;;5.72;2.55;;;18.20;99.90;;;;;;4963552;28;20057;-76
2022/10/25 10:53:44;;;;;;;7.40;2.35;;;18.20;99.90;;;;;;4952336;28;20043;-76
2022/10/25 10:56:22;;;;;;;7.13;2.25;;;18.40;99.90;;;;;;4957579;28;20031;-73
2022/10/25 10:58:50;;;;;;;9.20;2.60;;;18.50;99.90;;;;;;4955131;28;20027;-76
2022/10/25 11:01:31;;;;;;;9.52;2.38;;;18.40;99.90;;;;;;4961184;28;20062;-75
2022/10/25 11:03:59;;;;;;;8.00;2.42;;;18.40;99.90;;;;;;4953765;28;20063;-77
2022/10/25 11:06:25;;;;;;;6.28;2.17;;;18.40;99.90;;;;;;4958252;28;20035;-76
2022/10/25 11:09:11;;;;;;;6.32;2.92;;;18.50;99.90;;;;;;4948290;28;20085;-77
2022/10/25 11:11:41;;;;;;;8.55;3.40;;;18.50;99.90;;;;;;4952967;28;20043;-71
2022/10/25 11:14:18;;;;;;;11.60;3.85;;;18.50;99.90;;;;;;4952367;28;20037;-71
2022/10/25 11:17:08;;;;;;;9.00;2.03;;;18.40;99.90;;;;;;4956286;28;20151;-73
2022/10/25 11:19:58;;;;;;;9.45;1.90;;;18.30;99.90;;;;;;4955791;28;20043;-77
2022/10/25 11:22:47;;;;;;;6.35;2.20;;;18.40;99.90;;;;;;4952615;28;20038;-73
2022/10/25 11:25:27;;;;;;;4.95;1.80;;;18.20;99.90;;;;;;4955174;28;20038;-75
2022/10/25 11:28:31;;;;;;;5.65;2.03;;;18.20;99.90;;;;;;4960235;28;20042;-73
2022/10/25 11:31:15;;;;;;;;;;;18.10;99.90;;;;;;4953828;28;20115;-74
2022/10/25 11:33:49;;;;;;;11.95;2.13;;;18.20;99.90;;;;;;4963123;28;20323;-75
2022/10/25 11:36:35;;;;;;;6.25;1.70;;;18.30;99.90;;;;;;4949978;28;20023;-75
2022/10/25 11:39:16;;;;;;;5.97;1.80;;;18.40;99.90;;;;;;4947044;28;20027;-76
2022/10/25 11:41:49;;;;;;;25.20;9.43;;;18.40;99.90;;;;;;4958787;28;20027;-71
2022/10/25 11:44:24;;;;;;;;;;;18.50;99.90;;;;;;4953203;28;20056;-74
2022/10/25 11:47:01;;;;;;;10.10;1.80;;;18.70;99.90;;;;;;4958774;28;19950;-73
2022/10/25 11:49:43;;;;;;;6.97;1.60;;;18.70;99.90;;;;;;4953085;28;20337;-75
2022/10/25 11:52:44;;;;;;;6.60;2.03;;;18.50;99.90;;;;;;4956491;28;20050;-74
2022/10/25 11:55:36;;;;;;;5.72;1.80;;;18.40;99.90;;;;;;4951259;28;20065;-74
2022/10/25 11:58:35;;;;;;;7.07;1.77;;;18.40;99.90;;;;;;4952035;28;20330;-75
2022/10/25 12:01:01;;;;;;;6.32;1.48;;;18.30;99.90;;;;;;4961182;28;20114;-73
2022/10/25 12:03:48;;;;;;;7.50;1.90;;;18.50;99.90;;;;;;4947751;28;20054;-76
2022/10/25 12:06:13;;;;;;;8.93;2.13;;;18.60;99.90;;;;;;4946038;28;20117;-75
2022/10/25 12:08:55;;;;;;;3.63;1.48;;;18.80;99.90;;;;;;4951439;28;20134;-74
2022/10/25 12:11:40;;;;;;;4.43;1.48;;;18.90;99.90;;;;;;4954982;28;20118;-76
2022/10/25 12:14:13;;;;;;;6.82;1.60;;;19.30;99.90;;;;;;4950836;28;20043;-77
2022/10/25 12:16:42;;;;;;;7.15;2.13;;;19.40;99.90;;;;;;4970159;28;20322;-75
2022/10/25 12:19:21;;;;;;;6.03;1.33;;;19.50;99.90;;;;;;4971179;28;20049;-75
2022/10/25 12:22:21;;;;;;;5.20;1.30;;;19.30;99.90;;;;;;4953949;28;20139;-74
2022/10/25 12:25:05;;;;;;;2.95;1.20;;;19.40;99.90;;;;;;4952316;28;20031;-73
2022/10/25 12:27:32;;;;;;;4.47;1.40;;;19.20;99.90;;;;;;4950747;28;20038;-72
2022/10/25 12:30:13;;;;;;;9.30;3.35;;;19.10;99.90;;;;;;4948297;28;20057;-72
2022/10/25 12:33:01;;;;;;;6.25;1.83;;;19.00;99.90;;;;;;4949536;28;20038;-73
2022/10/25 12:35:34;;;;;;;5.88;1.20;;;19.20;99.90;;;;;;4951150;28;20049;-72
2022/10/25 12:38:10;;;;;;;7.68;1.50;;;19.20;99.90;;;;;;4956221;28;20050;-73
2022/10/25 12:40:41;;;;;;;3.63;1.20;;;19.10;99.90;;;;;;4955761;28;20077;-73
2022/10/25 12:43:34;;;;;;;4.20;1.23;;;19.30;99.90;;;;;;4952701;28;20015;-73
2022/10/25 12:46:27;;;;;;;2.30;1.37;;;19.70;99.90;;;;;;4971798;28;20126;-73
2022/10/25 12:49:14;;;;;;;2.22;0.93;;;19.70;99.90;;;;;;4952298;28;20278;-74
2022/10/25 12:52:03;;;;;;;6.63;1.42;;;19.40;99.90;;;;;;4951922;28;20094;-75
2022/10/25 12:54:47;;;;;;;5.90;1.45;;;19.30;99.90;;;;;;4954918;28;20150;-75
2022/10/25 12:57:27;;;;;;;4.35;0.95;;;19.10;99.90;;;;;;4957372;28;20048;-72
2022/10/25 13:00:13;;;;;;;5.97;1.63;;;18.80;99.90;;;;;;4952624;28;20461;-72
2022/10/25 13:02:47;;;;;;;5.70;1.80;;;19.20;99.90;;;;;;4955438;28;20605;-71
2022/10/25 13:05:31;;;;;;;4.72;1.92;;;19.60;99.90;;;;;;4952301;28;20031;-73
2022/10/25 13:08:00;;;;;;;6.20;0.90;;;19.30;99.90;;;;;;4958900;28;20038;-71
2022/10/25 13:10:30;;;;;;;6.05;1.45;;;19.20;99.90;;;;;;4953019;28;20082;-74